createdAt,value
2023-03-18T00:00:00.287Z,6.50
2023-03-18T00:02:27.539Z,5.43
2023-03-18T00:04:54.195Z,6.25
2023-03-18T00:07:20.851Z,6.63
2023-03-18T00:09:47.795Z,6.10
2023-03-18T00:12:14.529Z,6.07
2023-03-18T00:14:42.029Z,5.65
2023-03-18T00:17:08.806Z,6.18
2023-03-18T00:19:35.558Z,5.78
2023-03-18T00:22:02.412Z,5.72
2023-03-18T00:24:29.153Z,5.78
2023-03-18T00:26:56.255Z,5.88
2023-03-18T00:29:24.258Z,5.43
2023-03-18T00:31:51.594Z,5.82
2023-03-18T00:34:19.690Z,5.72
2023-03-18T00:36:51.231Z,4.78
2023-03-18T00:39:22.091Z,5.72
2023-03-18T00:41:48.915Z,5.10
2023-03-18T00:44:15.509Z,4.45
2023-03-18T00:46:42.336Z,5.38
2023-03-18T00:49:09.876Z,5.65
2023-03-18T00:51:37.640Z,4.75
2023-03-18T00:54:07.870Z,4.82
2023-03-18T00:56:38.807Z,5.03
2023-03-18T00:59:06.878Z,4.85
2023-03-18T01:01:34.006Z,5.38
2023-03-18T01:04:01.423Z,5.30
2023-03-18T01:06:29.635Z,4.28
2023-03-18T01:08:57.267Z,4.72
2023-03-18T01:11:25.093Z,5.70
2023-03-18T01:13:52.017Z,4.18
2023-03-18T01:16:19.535Z,3.67
2023-03-18T01:18:46.902Z,4.15
2023-03-18T01:21:13.929Z,4.85
2023-03-18T01:23:41.082Z,4.32
2023-03-18T01:26:07.911Z,3.50
2023-03-18T01:28:34.603Z,3.88
2023-03-18T01:31:01.522Z,3.92
2023-03-18T01:33:30.105Z,4.07
2023-03-18T01:35:58.717Z,4.47
2023-03-18T01:38:26.398Z,4.40
2023-03-18T01:40:54.754Z,3.88
2023-03-18T01:43:26.644Z,4.05
2023-03-18T01:45:55.082Z,4.20
2023-03-18T01:48:24.333Z,3.88
2023-03-18T01:50:53.944Z,4.10
2023-03-18T01:53:21.699Z,4.18
2023-03-18T01:55:50.919Z,3.20
2023-03-18T01:58:21.283Z,3.65
2023-03-18T02:00:58.067Z,3.15
2023-03-18T02:03:25.794Z,3.20
2023-03-18T02:05:52.542Z,3.67
2023-03-18T02:08:19.492Z,3.53
2023-03-18T02:10:46.658Z,3.50
2023-03-18T02:13:14.931Z,3.63
2023-03-18T02:15:50.840Z,3.25
2023-03-18T02:18:23.379Z,4.13
2023-03-18T02:21:08.643Z,3.30
2023-03-18T02:23:54.060Z,4.25
2023-03-18T02:26:24.337Z,3.83
2023-03-18T02:28:52.268Z,2.90
2023-03-18T02:31:20.137Z,3.17
2023-03-18T02:33:47.341Z,3.38
2023-03-18T02:36:17.979Z,3.22
2023-03-18T02:38:45.650Z,3.10
2023-03-18T02:41:20.064Z,3.28
2023-03-18T02:43:47.477Z,2.88
2023-03-18T02:46:44.186Z,2.45
2023-03-18T02:49:10.960Z,3.10
2023-03-18T02:51:37.851Z,3.05
2023-03-18T02:54:11.078Z,4.07
2023-03-18T02:56:41.953Z,3.08
2023-03-18T02:59:11.772Z,2.67
2023-03-18T03:01:39.296Z,3.45
2023-03-18T03:04:07.156Z,2.40
2023-03-18T03:06:34.414Z,2.45
2023-03-18T03:09:01.412Z,2.78
2023-03-18T03:11:28.160Z,2.60
2023-03-18T03:13:54.854Z,2.97
2023-03-18T03:16:22.086Z,2.95
2023-03-18T03:18:48.621Z,2.45
2023-03-18T03:21:15.434Z,2.80
2023-03-18T03:23:42.978Z,2.92
2023-03-18T03:26:09.678Z,2.97
2023-03-18T03:28:36.341Z,3.08
2023-03-18T03:31:03.334Z,2.70
2023-03-18T03:33:30.103Z,2.38
2023-03-18T03:35:58.419Z,2.08
2023-03-18T03:38:25.516Z,2.80
2023-03-18T03:40:52.882Z,2.45
2023-03-18T03:43:19.557Z,2.80
2023-03-18T03:45:46.257Z,2.60
2023-03-18T03:48:13.013Z,2.17
2023-03-18T03:50:39.873Z,2.50
2023-03-18T03:53:07.063Z,2.63
2023-03-18T03:55:33.978Z,3.05
2023-03-18T03:58:01.157Z,2.90
2023-03-18T04:00:28.155Z,2.70
2023-03-18T04:02:55.309Z,2.53
2023-03-18T04:05:23.587Z,3.03
2023-03-18T04:07:51.589Z,3.00
2023-03-18T04:10:20.105Z,2.30
2023-03-18T04:12:47.450Z,2.50
2023-03-18T04:15:17.583Z,2.58
2023-03-18T04:17:44.655Z,2.42
2023-03-18T04:20:11.686Z,2.05
2023-03-18T04:22:38.537Z,2.95
2023-03-18T04:25:05.735Z,2.55
2023-03-18T04:27:33.019Z,1.98
2023-03-18T04:29:59.619Z,2.00
2023-03-18T04:32:29.137Z,2.53
2023-03-18T04:34:55.955Z,2.80
2023-03-18T04:37:22.825Z,2.40
2023-03-18T04:39:49.975Z,2.83
2023-03-18T04:42:18.122Z,2.92
2023-03-18T04:44:45.535Z,2.90
2023-03-18T04:47:13.999Z,2.50
2023-03-18T04:49:41.156Z,2.30
2023-03-18T04:52:08.420Z,2.55
2023-03-18T04:54:35.263Z,2.20
2023-03-18T04:57:02.540Z,2.92
2023-03-18T04:59:29.489Z,2.08
2023-03-18T05:01:56.434Z,2.03
2023-03-18T05:04:23.996Z,2.05
2023-03-18T05:06:52.484Z,2.90
2023-03-18T05:09:19.638Z,1.92
2023-03-18T05:11:46.235Z,2.88
2023-03-18T05:14:13.871Z,2.60
2023-03-18T05:16:40.431Z,2.30
2023-03-18T05:19:07.756Z,2.75
2023-03-18T05:21:34.574Z,2.78
2023-03-18T05:24:01.347Z,2.65
2023-03-18T05:26:28.326Z,2.22
2023-03-18T05:28:55.578Z,2.38
2023-03-18T05:31:22.169Z,2.22
2023-03-18T05:33:48.914Z,2.78
2023-03-18T05:36:17.851Z,2.80
2023-03-18T05:38:44.908Z,2.58
2023-03-18T05:41:12.170Z,3.13
2023-03-18T05:43:39.044Z,2.40
2023-03-18T05:46:06.045Z,2.70
2023-03-18T05:48:33.269Z,2.17
2023-03-18T05:51:00.147Z,2.65
2023-03-18T05:53:27.025Z,2.88
2023-03-18T05:55:53.781Z,2.55
2023-03-18T05:58:21.292Z,2.38
2023-03-18T06:00:48.085Z,2.55
2023-03-18T06:03:15.161Z,2.38
2023-03-18T06:05:42.293Z,2.30
2023-03-18T06:08:08.943Z,2.40
2023-03-18T06:10:35.693Z,2.38
2023-03-18T06:13:02.521Z,2.28
2023-03-18T06:15:29.032Z,2.20
2023-03-18T06:17:56.756Z,2.28
2023-03-18T06:20:23.609Z,2.17
2023-03-18T06:22:50.457Z,2.55
2023-03-18T06:25:20.894Z,2.22
2023-03-18T06:27:48.196Z,2.55
2023-03-18T06:30:15.497Z,2.00
2023-03-18T06:32:42.996Z,2.03
2023-03-18T06:35:10.836Z,2.10
2023-03-18T06:37:38.492Z,2.00
2023-03-18T06:40:06.235Z,2.08
2023-03-18T06:42:33.449Z,2.60
2023-03-18T06:45:00.339Z,2.17
2023-03-18T06:47:27.447Z,2.30
2023-03-18T06:49:54.797Z,2.65
2023-03-18T06:52:21.755Z,3.40
2023-03-18T06:54:49.409Z,2.40
2023-03-18T06:57:16.206Z,2.10
2023-03-18T06:59:43.109Z,2.40
2023-03-18T07:02:10.948Z,2.00
2023-03-18T07:04:38.264Z,1.88
2023-03-18T07:07:06.231Z,2.30
2023-03-18T07:09:33.590Z,2.67
2023-03-18T07:12:00.803Z,2.13
2023-03-18T07:14:28.667Z,2.58
2023-03-18T07:16:56.136Z,2.10
2023-03-18T07:19:23.232Z,2.65
2023-03-18T07:21:50.381Z,1.80
2023-03-18T07:24:17.537Z,3.33
2023-03-18T07:26:44.294Z,2.50
2023-03-18T07:29:11.132Z,1.88
2023-03-18T07:31:38.580Z,2.28
2023-03-18T07:34:06.206Z,2.58
2023-03-18T07:36:33.493Z,2.55
2023-03-18T07:39:00.500Z,2.20
2023-03-18T07:41:29.698Z,2.20
2023-03-18T07:43:56.430Z,2.67
2023-03-18T07:46:23.426Z,2.47
2023-03-18T07:48:50.542Z,2.60
2023-03-18T07:51:17.688Z,2.30
2023-03-18T07:53:44.952Z,2.65
2023-03-18T07:56:11.785Z,3.65
2023-03-18T07:58:38.901Z,1.95
2023-03-18T08:01:06.211Z,2.55
2023-03-18T08:03:34.244Z,2.25
2023-03-18T08:06:01.145Z,2.10
2023-03-18T08:08:28.201Z,2.88
2023-03-18T08:10:59.962Z,1.92
2023-03-18T08:13:27.171Z,2.90
2023-03-18T08:15:54.301Z,2.00
2023-03-18T08:18:21.063Z,2.80
2023-03-18T08:20:48.437Z,2.67
2023-03-18T08:23:15.027Z,2.45
2023-03-18T08:25:42.205Z,2.90
2023-03-18T08:28:08.804Z,2.40
2023-03-18T08:30:35.957Z,2.47
2023-03-18T08:33:03.289Z,3.20
2023-03-18T08:35:30.579Z,3.17
2023-03-18T08:37:58.175Z,4.97
2023-03-18T08:40:26.364Z,2.88
2023-03-18T08:42:53.503Z,2.10
2023-03-18T08:45:21.063Z,2.83
2023-03-18T08:47:52.651Z,3.30
2023-03-18T08:50:19.780Z,2.28
2023-03-18T08:52:47.348Z,2.60
2023-03-18T08:55:14.254Z,2.92
2023-03-18T08:57:41.042Z,3.95
2023-03-18T09:00:08.556Z,3.13
2023-03-18T09:02:35.749Z,3.03
2023-03-18T09:05:02.350Z,3.05
2023-03-18T09:07:28.776Z,2.25
2023-03-18T09:09:55.408Z,2.67
2023-03-18T09:12:22.803Z,2.25
2023-03-18T09:14:49.460Z,2.55
2023-03-18T09:17:16.842Z,2.50
2023-03-18T09:19:43.787Z,2.13
2023-03-18T09:22:10.420Z,3.67
2023-03-18T09:24:37.229Z,3.95
2023-03-18T09:27:03.947Z,2.83
2023-03-18T09:29:30.943Z,2.85
2023-03-18T09:31:57.802Z,3.88
2023-03-18T09:34:24.784Z,2.75
2023-03-18T09:36:51.918Z,3.85
2023-03-18T09:39:22.067Z,2.65
2023-03-18T09:42:18.834Z,3.17
2023-03-18T09:44:54.976Z,2.60
2023-03-18T09:47:24.800Z,2.53
2023-03-18T09:50:14.406Z,2.28
2023-03-18T09:52:41.265Z,2.20
2023-03-18T09:55:19.981Z,3.17
2023-03-18T09:57:47.854Z,3.88
2023-03-18T10:00:34.744Z,2.17
2023-03-18T10:03:06.742Z,3.38
2023-03-18T10:05:43.304Z,2.38
2023-03-18T10:08:20.150Z,3.15
2023-03-18T10:10:47.836Z,2.92
2023-03-18T10:13:28.951Z,3.35
2023-03-18T10:15:57.150Z,4.20
2023-03-18T10:18:29.643Z,3.08
2023-03-18T10:20:59.676Z,3.78
2023-03-18T10:23:32.317Z,3.63
2023-03-18T10:26:06.015Z,2.78
2023-03-18T10:28:50.891Z,4.18
2023-03-18T10:31:17.847Z,3.08
2023-03-18T10:34:11.927Z,3.67
2023-03-18T10:36:39.536Z,2.30
2023-03-18T10:39:12.329Z,2.38
2023-03-18T10:41:39.482Z,2.95
2023-03-18T10:44:23.172Z,2.40
2023-03-18T10:46:56.058Z,3.05
2023-03-18T10:49:25.869Z,3.05
2023-03-18T10:51:55.853Z,2.67
2023-03-18T10:54:25.466Z,2.78
2023-03-18T10:56:53.493Z,2.20
2023-03-18T10:59:22.220Z,3.10
2023-03-18T11:01:50.552Z,4.18
2023-03-18T11:04:19.580Z,2.78
2023-03-18T11:06:50.549Z,3.65
2023-03-18T11:09:19.095Z,3.10
2023-03-18T11:11:50.845Z,2.25
2023-03-18T11:14:22.551Z,3.28
2023-03-18T11:17:12.689Z,2.58
2023-03-18T11:19:41.848Z,3.00
2023-03-18T11:22:18.612Z,2.17
2023-03-18T11:24:45.766Z,3.72
2023-03-18T11:27:18.656Z,3.25
2023-03-18T11:29:50.268Z,2.70
2023-03-18T11:32:24.698Z,3.78
2023-03-18T11:34:57.546Z,2.15
2023-03-18T11:37:33.026Z,3.50
2023-03-18T11:40:15.116Z,3.15
2023-03-18T11:42:42.739Z,2.30
2023-03-18T11:45:28.161Z,2.53
2023-03-18T11:47:54.960Z,2.28
2023-03-18T11:50:26.510Z,1.95
2023-03-18T11:53:12.247Z,2.53
2023-03-18T11:56:01.829Z,3.53
2023-03-18T11:58:47.318Z,2.10
2023-03-18T12:01:14.141Z,2.85
2023-03-18T12:03:52.967Z,3.10
2023-03-18T12:06:21.954Z,3.03
2023-03-18T12:09:18.174Z,3.25
2023-03-18T12:11:59.109Z,1.98
2023-03-18T12:14:26.252Z,2.53
2023-03-18T12:16:59.291Z,1.98
2023-03-18T12:19:47.193Z,3.80
2023-03-18T12:22:16.537Z,2.38
2023-03-18T12:24:46.450Z,2.83
2023-03-18T12:27:22.979Z,2.20
2023-03-18T12:29:52.681Z,1.92
2023-03-18T12:32:25.610Z,2.60
2023-03-18T12:35:11.814Z,3.65
2023-03-18T12:37:47.768Z,2.20
2023-03-18T12:40:14.477Z,3.95
2023-03-18T12:42:55.183Z,2.85
2023-03-18T12:45:25.486Z,2.75
2023-03-18T12:47:56.653Z,2.40
2023-03-18T12:50:26.351Z,2.55
2023-03-18T12:52:56.381Z,2.67
2023-03-18T12:55:43.154Z,2.20
2023-03-18T12:58:18.315Z,2.63
2023-03-18T13:00:48.001Z,1.55
2023-03-18T13:03:14.586Z,2.67
2023-03-18T13:05:43.856Z,1.98
2023-03-18T13:08:21.761Z,3.05
2023-03-18T13:10:52.438Z,3.05
2023-03-18T13:13:19.585Z,4.18
2023-03-18T13:15:52.897Z,1.90
2023-03-18T13:18:19.801Z,3.65
2023-03-18T13:20:47.595Z,2.53
2023-03-18T13:23:23.557Z,2.95
2023-03-18T13:26:03.684Z,2.97
2023-03-18T13:28:37.021Z,2.85
2023-03-18T13:31:14.481Z,3.42
2023-03-18T13:33:49.232Z,3.38
2023-03-18T13:36:16.071Z,2.85
2023-03-18T13:39:01.355Z,2.85
2023-03-18T13:41:46.838Z,4.35
2023-03-18T13:44:19.480Z,2.20
2023-03-18T13:46:54.218Z,2.17
2023-03-18T13:49:23.199Z,2.80
2023-03-18T13:51:51.907Z,3.05
2023-03-18T13:54:19.793Z,3.40
2023-03-18T13:56:48.998Z,3.22
2023-03-18T13:59:33.930Z,2.47
2023-03-18T14:02:19.246Z,1.73
2023-03-18T14:04:50.072Z,3.10
2023-03-18T14:07:18.767Z,2.65
2023-03-18T14:09:53.501Z,2.97
2023-03-18T14:12:20.809Z,5.15
2023-03-18T14:14:51.480Z,3.70
2023-03-18T14:17:34.150Z,3.15
2023-03-18T14:20:19.127Z,2.90
2023-03-18T14:23:00.956Z,2.00
2023-03-18T14:25:41.624Z,2.88
2023-03-18T14:28:10.223Z,2.15
2023-03-18T14:30:42.841Z,2.55
2023-03-18T14:33:19.472Z,2.90
2023-03-18T14:35:46.692Z,2.17
2023-03-18T14:38:34.822Z,3.05
2023-03-18T14:41:03.753Z,2.15
2023-03-18T14:44:03.136Z,2.30
2023-03-18T14:46:34.401Z,2.38
2023-03-18T14:49:01.255Z,3.17
2023-03-18T14:51:30.856Z,2.00
2023-03-18T14:54:01.662Z,1.70
2023-03-18T14:56:36.594Z,2.38
2023-03-18T14:59:03.316Z,2.70
2023-03-18T15:01:37.290Z,2.75
2023-03-18T15:04:04.842Z,2.70
2023-03-18T15:06:36.405Z,2.40
2023-03-18T15:09:04.983Z,2.33
2023-03-18T15:11:37.168Z,2.75
2023-03-18T15:14:10.436Z,2.88
2023-03-18T15:16:37.623Z,2.95
2023-03-18T15:19:05.494Z,2.88
2023-03-18T15:21:35.205Z,2.10
2023-03-18T15:24:06.263Z,2.22
2023-03-18T15:26:40.288Z,2.13
2023-03-18T15:29:24.464Z,2.30
2023-03-18T15:31:52.162Z,2.33
2023-03-18T15:34:23.641Z,3.17
2023-03-18T15:36:57.848Z,2.80
2023-03-18T15:39:29.406Z,3.65
2023-03-18T15:41:58.009Z,2.67
2023-03-18T15:44:26.458Z,3.13
2023-03-18T15:46:54.977Z,2.72
2023-03-18T15:49:26.684Z,3.58
2023-03-18T15:51:58.493Z,2.83
2023-03-18T15:54:28.644Z,3.00
2023-03-18T15:56:56.440Z,3.42
2023-03-18T15:59:27.450Z,2.97
2023-03-18T16:01:58.493Z,3.00
2023-03-18T16:04:26.038Z,3.75
2023-03-18T16:06:54.113Z,3.67
2023-03-18T16:09:22.372Z,3.20
2023-03-18T16:11:57.821Z,3.58
2023-03-18T16:14:31.756Z,3.25
2023-03-18T16:16:58.889Z,3.65
2023-03-18T16:19:28.417Z,3.78
2023-03-18T16:21:56.624Z,4.55
2023-03-18T16:24:23.821Z,3.50
2023-03-18T16:26:51.750Z,3.70
2023-03-18T16:29:22.332Z,3.80
2023-03-18T16:31:49.058Z,3.97
2023-03-18T16:34:16.860Z,4.28
2023-03-18T16:36:44.253Z,4.13
2023-03-18T16:39:15.442Z,5.05
2023-03-18T16:41:42.508Z,4.53
2023-03-18T16:44:13.542Z,4.30
2023-03-18T16:46:41.741Z,4.60
2023-03-18T16:49:14.198Z,4.57
2023-03-18T16:51:41.425Z,4.90
2023-03-18T16:54:18.393Z,5.53
2023-03-18T16:56:45.348Z,4.35
2023-03-18T16:59:12.924Z,4.85
2023-03-18T17:01:45.015Z,4.30
2023-03-18T17:04:24.886Z,4.32
2023-03-18T17:06:52.298Z,5.82
2023-03-18T17:09:23.931Z,4.97
2023-03-18T17:11:51.860Z,4.90
2023-03-18T17:14:36.481Z,4.60
2023-03-18T17:17:23.731Z,4.75
2023-03-18T17:19:53.251Z,4.82
2023-03-18T17:22:29.513Z,6.28
2023-03-18T17:24:57.150Z,4.80
2023-03-18T17:27:25.827Z,5.50
2023-03-18T17:29:53.464Z,5.20
2023-03-18T17:32:24.796Z,5.53
2023-03-18T17:34:52.358Z,5.63
2023-03-18T17:37:19.819Z,5.20
2023-03-18T17:39:46.672Z,7.03
2023-03-18T17:42:25.194Z,6.72
2023-03-18T17:44:52.043Z,5.93
2023-03-18T17:47:18.981Z,5.82
2023-03-18T17:49:45.641Z,5.47
2023-03-18T17:52:14.930Z,6.85
2023-03-18T17:54:42.094Z,5.90
2023-03-18T17:57:13.335Z,5.72
2023-03-18T17:59:40.152Z,6.53
2023-03-18T18:02:12.182Z,6.00
2023-03-18T18:04:40.337Z,6.28
2023-03-18T18:07:24.255Z,6.40
2023-03-18T18:09:51.637Z,5.95
2023-03-18T18:12:23.138Z,6.35
2023-03-18T18:14:50.032Z,6.90
2023-03-18T18:17:19.527Z,7.03
2023-03-18T18:19:46.159Z,6.72
2023-03-18T18:22:21.192Z,6.18
2023-03-18T18:24:48.487Z,6.50
2023-03-18T18:27:15.854Z,6.25
2023-03-18T18:29:53.253Z,8.50
2023-03-18T18:32:22.148Z,7.30
2023-03-18T18:34:49.305Z,7.93
2023-03-18T18:37:16.682Z,8.82
2023-03-18T18:39:43.807Z,7.47
2023-03-18T18:42:12.471Z,7.38
2023-03-18T18:44:39.335Z,7.68
2023-03-18T18:47:16.422Z,7.70
2023-03-18T18:49:43.397Z,6.82
2023-03-18T18:52:12.183Z,6.68
2023-03-18T18:54:38.884Z,6.70
2023-03-18T18:57:22.718Z,5.60
2023-03-18T18:59:51.140Z,6.45
2023-03-18T19:02:34.452Z,6.55
2023-03-18T19:05:02.629Z,7.57
2023-03-18T19:07:32.673Z,6.03
2023-03-18T19:09:59.854Z,6.68
2023-03-18T19:12:27.736Z,6.88
2023-03-18T19:14:54.749Z,6.68
2023-03-18T19:17:22.728Z,6.95
2023-03-18T19:19:51.997Z,6.07
2023-03-18T19:22:19.712Z,6.88
2023-03-18T19:24:48.514Z,6.28
2023-03-18T19:27:31.786Z,6.40
2023-03-18T19:29:59.962Z,6.72
2023-03-18T19:32:27.319Z,7.43
2023-03-18T19:34:55.015Z,7.15
2023-03-18T19:37:27.419Z,6.05
2023-03-18T19:42:20.806Z,6.82
2023-03-18T19:44:50.011Z,7.43
2023-03-18T19:47:22.577Z,6.07
2023-03-18T19:49:49.641Z,6.40
2023-03-18T19:52:22.115Z,6.05
2023-03-18T19:54:49.290Z,6.40
2023-03-18T19:57:27.646Z,6.40
2023-03-18T19:59:55.410Z,6.22
2023-03-18T20:02:23.555Z,6.70
2023-03-18T20:04:51.505Z,6.45
2023-03-18T20:07:19.174Z,6.97
2023-03-18T20:09:46.168Z,6.07
2023-03-18T20:12:18.664Z,8.15
2023-03-18T20:14:45.577Z,7.57
2023-03-18T20:17:21.140Z,5.95
2023-03-18T20:19:47.952Z,6.95
2023-03-18T20:22:19.936Z,6.85
2023-03-18T20:24:46.876Z,6.53
2023-03-18T20:27:13.689Z,6.38
2023-03-18T20:29:40.773Z,7.93
2023-03-18T20:32:07.644Z,6.18
2023-03-18T20:34:38.421Z,6.07
2023-03-18T20:37:06.591Z,6.75
2023-03-18T20:39:33.613Z,6.18
2023-03-18T20:42:00.271Z,5.85
2023-03-18T20:44:27.428Z,6.97
2023-03-18T20:46:54.096Z,7.72
2023-03-18T20:49:20.616Z,6.95
2023-03-18T20:51:47.131Z,7.07
2023-03-18T20:54:18.991Z,6.22
2023-03-18T20:56:46.917Z,6.30
2023-03-18T20:59:13.936Z,6.35
2023-03-18T21:01:40.980Z,6.70
2023-03-18T21:04:10.126Z,6.78
2023-03-18T21:06:36.735Z,5.80
2023-03-18T21:09:04.764Z,5.68
2023-03-18T21:11:33.107Z,5.47
2023-03-18T21:13:59.781Z,6.63
2023-03-18T21:16:26.775Z,6.72
2023-03-18T21:18:53.682Z,5.70
2023-03-18T21:21:25.297Z,6.65
2023-03-18T21:23:53.340Z,5.65
2023-03-18T21:26:20.582Z,6.57
2023-03-18T21:28:47.543Z,5.80
2023-03-18T21:31:33.398Z,6.20
2023-03-18T21:34:01.305Z,5.30
2023-03-18T21:36:28.127Z,4.95
2023-03-18T21:38:54.966Z,5.05
2023-03-18T21:41:24.497Z,5.47
2023-03-18T21:43:51.946Z,6.18
2023-03-18T21:46:20.135Z,5.60
2023-03-18T21:48:47.485Z,5.90
2023-03-18T21:51:43.515Z,6.35
2023-03-18T21:54:28.778Z,5.50
2023-03-18T21:56:55.626Z,5.88
2023-03-18T21:59:22.470Z,5.75
2023-03-18T22:01:49.520Z,5.80
2023-03-18T22:04:16.621Z,5.32
2023-03-18T22:06:43.406Z,6.38
2023-03-18T22:09:10.180Z,5.63
2023-03-18T22:11:36.861Z,6.53
2023-03-18T22:14:03.672Z,5.38
2023-03-18T22:16:30.665Z,5.30
2023-03-18T22:19:03.686Z,5.60
2023-03-18T22:21:30.561Z,5.78
2023-03-18T22:23:58.521Z,5.18
2023-03-18T22:26:25.710Z,5.75
2023-03-18T22:28:52.388Z,5.20
2023-03-18T22:31:23.429Z,7.28
2023-03-18T22:33:51.140Z,5.60
2023-03-18T22:36:18.721Z,5.22
2023-03-18T22:38:46.354Z,6.40
2023-03-18T22:41:18.460Z,5.40
2023-03-18T22:43:45.510Z,6.13
2023-03-18T22:46:12.249Z,5.35
2023-03-18T22:48:39.083Z,5.35
2023-03-18T22:51:06.129Z,5.20
2023-03-18T22:53:38.306Z,4.82
2023-03-18T22:56:09.689Z,5.07
2023-03-18T22:58:36.841Z,5.20
2023-03-18T23:01:04.312Z,5.10
2023-03-18T23:03:33.918Z,5.32
2023-03-18T23:06:02.317Z,5.85
2023-03-18T23:08:32.421Z,5.22
2023-03-18T23:11:02.755Z,5.00
2023-03-18T23:13:34.734Z,6.20
2023-03-18T23:16:04.639Z,5.03
2023-03-18T23:18:31.485Z,5.65
2023-03-18T23:20:58.133Z,5.13
2023-03-18T23:23:25.088Z,5.50
2023-03-18T23:25:52.798Z,4.63
2023-03-18T23:28:19.706Z,6.88
2023-03-18T23:30:48.053Z,5.82
2023-03-18T23:33:15.316Z,5.70
2023-03-18T23:35:42.589Z,5.07
2023-03-18T23:38:09.561Z,5.60
2023-03-18T23:40:36.516Z,6.57
2023-03-18T23:43:03.461Z,5.32
2023-03-18T23:45:30.309Z,6.15
2023-03-18T23:47:57.462Z,5.80
2023-03-18T23:50:24.416Z,6.10
2023-03-18T23:52:51.666Z,5.25
2023-03-18T23:55:33.682Z,5.82
2023-03-18T23:58:01.441Z,5.35
